INFORMACIÓN METAR y TAF
METAR FOR LEIB
ADDS - METARS form results

(0557 UTC 28 February 2021)
Data provider http://aviationweather.gov/metar/data/
 
METAR text: LEIB 280530Z 06010KT 020V080 9999 FEW024 BKN030 13/09 Q1023 NOSIG
Conditions at: LEIB (IBIZA/ES CODOLA , ES) observed 0530 UTC 28 February 2021
Temperature: 13.0°C (55°F)
Dewpoint: 9.0°C (48°F) [RH = 77%]
Pressure (altimeter): 30.21 inches Hg (1023.0 mb)
Winds: from the ENE (60 degrees) at 12 MPH (10 knots; 5.1 m/s)
Visibility: 6 or more miles (10+ km)
Ceiling: 3000 feet AGL
Clouds: few clouds at 2400 feet AGL
broken clouds at 3000 feet AGL
Weather: no significant weather observed at this time

METAR text: LEIB 280500Z 07010KT 040V100 9999 FEW024 BKN030 14/09 Q1023 NOSIG
Conditions at: LEIB (IBIZA/ES CODOLA , ES) observed 0500 UTC 28 February 2021
Temperature: 14.0°C (57°F)
Dewpoint: 9.0°C (48°F) [RH = 72%]
Pressure (altimeter): 30.21 inches Hg (1023.0 mb)
Winds: from the ENE (70 degrees) at 12 MPH (10 knots; 5.1 m/s)
Visibility: 6 or more miles (10+ km)
Ceiling: 3000 feet AGL
Clouds: few clouds at 2400 feet AGL
broken clouds at 3000 feet AGL
Weather: no significant weather observed at this time

Forecast for: LEIB (IBIZA/ES CODOLA , ES)
Text: TAF LEIB 280200Z 2803/0103 08010KT 9999 FEW020 BKN025 TX16/2812Z TN12/2806Z
Forecast period: 0300 UTC 28 February 2021 to 0300 UTC 01 March 2021
Forecast type: FROM: standard forecast or significant change
Winds: from the E (80 degrees) at 12 MPH (10 knots; 5.1 m/s)
Visibility: 6 or more miles (10+ km)
Ceiling: 2500 feet AGL
Clouds: few clouds at 2000 feet AGL
broken clouds at 2500 feet AGL
Weather: no significant weather forecast for this period
Text: TEMPO 2803/2808 08020KT
Forecast period: 0300 to 0800 UTC 28 February 2021
Forecast type: TEMPORARY: The following changes expected for less than half the time period
Winds: from the E (80 degrees) at 23 MPH (20 knots; 10.3 m/s)
Visibility: missing
Ceiling: unknown
Clouds: missing
Weather: no significant weather forecast for this period

 MAPA DE AEROPUERTO

 INFORMACIÓN DE PISTA